createdAt,value
2017-09-27T00:01:07.411Z,18.20
2017-09-27T00:03:33.391Z,18.87
2017-09-27T00:06:03.425Z,16.23
2017-09-27T00:08:32.120Z,17.03
2017-09-27T00:10:59.889Z,27.23
2017-09-27T00:13:26.554Z,19.97
2017-09-27T00:15:52.499Z,26.13
2017-09-27T00:18:18.505Z,16.60
2017-09-27T00:20:47.959Z,20.03
2017-09-27T00:23:17.602Z,13.93
2017-09-27T00:25:45.287Z,18.60
2017-09-27T00:28:13.025Z,21.43
2017-09-27T00:30:39.998Z,26.73
2017-09-27T00:33:06.733Z,18.60
2017-09-27T00:35:33.477Z,19.63
2017-09-27T00:38:06.694Z,17.27
2017-09-27T00:40:36.030Z,19.93
2017-09-27T00:43:03.005Z,22.03
2017-09-27T00:45:28.934Z,22.87
2017-09-27T00:47:54.853Z,19.83
2017-09-27T00:50:20.790Z,25.50
2017-09-27T00:52:46.706Z,23.60
2017-09-27T00:55:12.633Z,17.50
2017-09-27T00:57:38.569Z,16.20
2017-09-27T01:00:11.137Z,21.73
2017-09-27T01:02:37.084Z,27.50
2017-09-27T01:05:03.031Z,18.37
2017-09-27T01:07:30.709Z,23.37
2017-09-27T01:09:57.382Z,27.93
2017-09-27T01:12:23.325Z,26.97
2017-09-27T01:14:49.253Z,33.30
2017-09-27T01:17:15.215Z,24.73
2017-09-27T01:19:41.133Z,26.50
2017-09-27T01:22:11.662Z,22.77
2017-09-27T01:24:37.601Z,28.83
2017-09-27T01:27:03.525Z,37.03
2017-09-27T01:29:29.456Z,25.67
2017-09-27T01:31:56.134Z,24.83
2017-09-27T01:34:22.052Z,24.93
2017-09-27T01:36:47.981Z,26.70
2017-09-27T01:39:13.907Z,27.43
2017-09-27T01:41:39.891Z,23.53
2017-09-27T01:44:05.834Z,23.00
2017-09-27T01:46:31.749Z,25.03
2017-09-27T01:48:57.692Z,37.17
2017-09-27T01:51:23.622Z,27.33
2017-09-27T01:53:53.645Z,25.80
2017-09-27T01:56:22.318Z,30.37
2017-09-27T01:58:49.237Z,26.77
2017-09-27T02:01:15.143Z,29.10
2017-09-27T02:03:41.093Z,26.83
2017-09-27T02:06:07.006Z,26.37
2017-09-27T02:08:32.949Z,28.13
2017-09-27T02:10:58.878Z,25.87
2017-09-27T02:13:24.822Z,31.20
2017-09-27T02:15:50.747Z,29.70
2017-09-27T02:18:16.698Z,26.40
2017-09-27T02:20:42.624Z,25.47
2017-09-27T02:23:08.560Z,26.80
2017-09-27T02:25:35.220Z,25.83
2017-09-27T02:28:01.146Z,25.73
2017-09-27T02:30:27.814Z,27.70
2017-09-27T02:32:53.776Z,36.30
2017-09-27T02:35:19.722Z,25.97
2017-09-27T02:37:46.418Z,38.67
2017-09-27T02:40:12.364Z,31.80
2017-09-27T02:42:41.533Z,28.60
2017-09-27T02:45:07.478Z,30.80
2017-09-27T02:47:33.423Z,36.07
2017-09-27T02:49:59.349Z,28.07
2017-09-27T02:52:25.281Z,32.63
2017-09-27T02:54:51.222Z,31.67
2017-09-27T02:57:17.159Z,27.97
2017-09-27T02:59:43.085Z,26.33
2017-09-27T03:02:09.018Z,27.50
2017-09-27T03:04:35.698Z,24.10
2017-09-27T03:07:01.624Z,30.63
2017-09-27T03:09:27.548Z,25.73
2017-09-27T03:11:53.486Z,23.63
2017-09-27T03:14:19.400Z,28.10
2017-09-27T03:16:45.334Z,23.63
2017-09-27T03:19:11.273Z,27.87
2017-09-27T03:21:37.195Z,23.30
2017-09-27T03:24:03.120Z,25.47
2017-09-27T03:26:29.054Z,27.50
2017-09-27T03:28:54.981Z,28.63
2017-09-27T03:31:20.965Z,24.83
2017-09-27T03:33:46.881Z,28.00
2017-09-27T03:36:12.815Z,35.37
2017-09-27T03:38:38.743Z,32.20
2017-09-27T03:41:04.660Z,27.63
2017-09-27T03:43:35.221Z,29.03
2017-09-27T03:46:01.898Z,28.60
2017-09-27T03:48:27.843Z,26.50
2017-09-27T03:50:53.764Z,34.00
2017-09-27T03:53:19.695Z,27.93
2017-09-27T03:55:45.635Z,41.10
2017-09-27T03:58:11.574Z,35.30
2017-09-27T04:00:37.518Z,29.50
2017-09-27T04:03:04.173Z,31.20
2017-09-27T04:05:31.911Z,32.80
2017-09-27T04:07:57.905Z,28.37
2017-09-27T04:10:23.826Z,33.80
2017-09-27T04:12:49.770Z,40.90
2017-09-27T04:15:15.718Z,29.93
2017-09-27T04:17:41.657Z,32.13
2017-09-27T04:20:07.718Z,32.73
2017-09-27T04:22:33.704Z,36.40
2017-09-27T04:24:59.629Z,30.27
2017-09-27T04:27:26.589Z,35.40
2017-09-27T04:29:52.520Z,30.37
2017-09-27T04:32:21.717Z,32.03
2017-09-27T04:34:47.629Z,33.00
2017-09-27T04:37:13.606Z,41.87
2017-09-27T04:39:39.590Z,33.47
2017-09-27T04:42:05.530Z,31.97
2017-09-27T04:44:31.501Z,38.70
2017-09-27T04:46:57.421Z,33.43
2017-09-27T04:49:23.361Z,32.30
2017-09-27T04:51:49.293Z,39.43
2017-09-27T04:54:15.261Z,34.30
2017-09-27T04:56:41.202Z,32.50
2017-09-27T04:59:07.884Z,39.93
2017-09-27T05:01:33.803Z,37.90
2017-09-27T05:03:59.761Z,33.17
2017-09-27T05:06:25.701Z,39.00
2017-09-27T05:08:51.630Z,36.97
2017-09-27T05:11:17.562Z,49.93
2017-09-27T05:13:43.490Z,41.10
2017-09-27T05:16:09.440Z,44.43
2017-09-27T05:18:36.204Z,40.80
2017-09-27T05:21:02.857Z,44.97
2017-09-27T05:23:28.792Z,40.03
2017-09-27T05:25:54.761Z,33.80
2017-09-27T05:28:20.685Z,41.30
2017-09-27T05:30:46.623Z,37.67
2017-09-27T05:33:13.322Z,41.47
2017-09-27T05:35:39.229Z,35.70
2017-09-27T05:38:05.921Z,36.50
2017-09-27T05:40:31.846Z,33.27
2017-09-27T05:42:57.769Z,35.77
2017-09-27T05:45:23.735Z,44.03
2017-09-27T05:47:50.397Z,37.90
2017-09-27T05:50:17.073Z,42.17
2017-09-27T05:52:43.001Z,43.67
2017-09-27T05:55:12.349Z,40.50
2017-09-27T05:57:42.874Z,40.47
2017-09-27T06:00:08.917Z,38.40
2017-09-27T06:02:35.918Z,35.90
2017-09-27T06:05:01.892Z,45.23
2017-09-27T06:07:27.947Z,39.00
2017-09-27T06:09:54.682Z,37.47
2017-09-27T06:12:21.342Z,37.77
2017-09-27T06:14:49.322Z,40.20
2017-09-27T06:17:17.366Z,36.60
2017-09-27T06:19:43.393Z,33.97
2017-09-27T06:22:12.801Z,33.97
2017-09-27T06:24:42.830Z,53.47
2017-09-27T06:27:09.589Z,45.07
2017-09-27T06:29:40.409Z,37.37
2017-09-27T06:32:09.912Z,33.20
2017-09-27T06:34:36.590Z,47.90
2017-09-27T06:37:02.514Z,37.33
2017-09-27T06:39:28.440Z,33.17
2017-09-27T06:41:54.382Z,36.33
2017-09-27T06:44:20.310Z,39.53
2017-09-27T06:46:46.292Z,36.43
2017-09-27T06:49:12.998Z,30.70
2017-09-27T06:51:38.918Z,39.37
2017-09-27T06:54:04.861Z,33.47
2017-09-27T06:56:30.808Z,31.17
2017-09-27T06:58:56.737Z,39.20
2017-09-27T07:01:22.680Z,33.90
2017-09-27T07:03:53.221Z,37.17
2017-09-27T07:06:19.901Z,36.00
2017-09-27T07:08:45.836Z,44.60
2017-09-27T07:11:11.781Z,36.13
2017-09-27T07:13:37.709Z,35.80
2017-09-27T07:16:03.646Z,39.13
2017-09-27T07:18:29.616Z,34.50
2017-09-27T07:20:59.701Z,30.47
2017-09-27T07:23:25.645Z,34.20
2017-09-27T07:25:52.297Z,35.00
2017-09-27T07:28:18.972Z,34.53
2017-09-27T07:30:44.894Z,35.80
2017-09-27T07:33:10.846Z,28.93
2017-09-27T07:35:36.762Z,28.67
2017-09-27T07:38:02.750Z,32.03
2017-09-27T07:40:29.405Z,30.10
2017-09-27T07:42:57.107Z,30.60
2017-09-27T07:45:23.035Z,27.37
2017-09-27T07:47:48.964Z,34.13
2017-09-27T07:50:14.890Z,34.07
2017-09-27T07:52:40.846Z,33.10
2017-09-27T07:55:06.846Z,35.10
2017-09-27T07:57:32.770Z,28.40
2017-09-27T07:59:58.673Z,31.70
2017-09-27T08:02:25.621Z,27.27
2017-09-27T08:04:51.613Z,31.83
2017-09-27T08:07:17.572Z,31.23
2017-09-27T08:09:44.225Z,26.50
2017-09-27T08:12:10.164Z,33.17
2017-09-27T08:14:36.123Z,28.57
2017-09-27T08:17:02.040Z,28.37
2017-09-27T08:19:27.963Z,31.37
2017-09-27T08:21:53.885Z,28.23
2017-09-27T08:24:19.826Z,31.50
2017-09-27T08:26:45.792Z,28.43
2017-09-27T08:29:11.713Z,26.10
2017-09-27T08:31:37.666Z,27.23
2017-09-27T08:34:03.604Z,22.50
2017-09-27T08:36:29.555Z,30.53
2017-09-27T08:38:55.578Z,19.20
2017-09-27T08:41:21.508Z,27.23
2017-09-27T08:43:47.454Z,22.13
2017-09-27T08:46:13.424Z,25.27
2017-09-27T08:48:39.365Z,23.53
2017-09-27T08:51:05.318Z,24.60
2017-09-27T08:53:31.253Z,25.43
2017-09-27T08:55:57.182Z,24.83
2017-09-27T08:58:23.118Z,28.60
2017-09-27T09:00:49.104Z,26.03
2017-09-27T09:03:15.037Z,24.87
2017-09-27T09:05:40.982Z,24.27
2017-09-27T09:08:08.697Z,25.30
2017-09-27T09:10:35.421Z,29.40
2017-09-27T09:13:01.408Z,25.10
2017-09-27T09:15:27.947Z,25.83
2017-09-27T09:17:53.888Z,31.50
2017-09-27T09:20:19.839Z,25.73
2017-09-27T09:22:45.782Z,23.47
2017-09-27T09:25:11.718Z,24.70
2017-09-27T09:27:37.653Z,22.83
2017-09-27T09:30:05.010Z,29.63
2017-09-27T09:32:31.707Z,23.00
2017-09-27T09:34:57.666Z,25.20
2017-09-27T09:37:23.625Z,21.50
2017-09-27T09:39:50.315Z,25.40
2017-09-27T09:42:16.296Z,27.03
2017-09-27T09:44:42.314Z,27.30
2017-09-27T09:47:08.990Z,28.43
2017-09-27T09:49:34.961Z,26.50
2017-09-27T09:52:00.993Z,21.70
2017-09-27T09:54:26.946Z,21.90
2017-09-27T09:56:53.639Z,23.70
2017-09-27T09:59:19.613Z,45.93
2017-09-27T10:01:45.558Z,23.93
2017-09-27T10:04:12.230Z,23.03
2017-09-27T10:06:38.161Z,30.60
2017-09-27T10:09:04.081Z,35.20
2017-09-27T10:11:30.002Z,24.20
2017-09-27T10:13:55.960Z,21.60
2017-09-27T10:16:21.902Z,30.07
2017-09-27T10:18:47.825Z,28.10
2017-09-27T10:21:13.790Z,21.97
2017-09-27T10:23:40.815Z,25.63
2017-09-27T10:26:07.171Z,44.87
2017-09-27T10:28:40.965Z,33.20
2017-09-27T10:31:11.349Z,24.17
2017-09-27T10:33:37.263Z,24.37
2017-09-27T10:36:03.197Z,24.10
2017-09-27T10:38:29.134Z,23.23
2017-09-27T10:40:55.073Z,22.43
2017-09-27T10:43:21.033Z,24.07
2017-09-27T10:45:47.730Z,25.20
2017-09-27T10:48:13.654Z,19.67
2017-09-27T10:50:39.609Z,27.27
2017-09-27T10:53:05.543Z,32.00
2017-09-27T10:55:31.481Z,35.40
2017-09-27T10:57:59.414Z,18.97
2017-09-27T11:00:25.346Z,25.90
2017-09-27T11:02:51.285Z,35.70
2017-09-27T11:05:17.217Z,21.57
2017-09-27T11:07:43.194Z,28.70
2017-09-27T11:10:13.209Z,17.53
2017-09-27T11:12:39.886Z,16.53
2017-09-27T11:15:05.997Z,18.83
2017-09-27T11:17:31.940Z,25.10
2017-09-27T11:20:01.012Z,19.93
2017-09-27T11:22:27.729Z,16.80
2017-09-27T11:24:57.389Z,17.60
2017-09-27T11:27:23.321Z,17.37
2017-09-27T11:29:49.283Z,21.50
2017-09-27T11:32:15.241Z,20.73
2017-09-27T11:34:46.705Z,26.87
2017-09-27T11:37:14.401Z,20.17
2017-09-27T11:39:40.347Z,23.40
2017-09-27T11:42:13.990Z,24.43
2017-09-27T11:44:40.864Z,19.37
2017-09-27T11:47:06.875Z,14.50
2017-09-27T11:49:33.607Z,16.40
2017-09-27T11:51:59.635Z,19.50
2017-09-27T11:54:25.662Z,15.60
2017-09-27T11:56:51.691Z,15.37
2017-09-27T11:59:19.656Z,20.60
2017-09-27T12:01:45.597Z,27.00
2017-09-27T12:04:13.582Z,19.07
2017-09-27T12:06:40.262Z,19.73
2017-09-27T12:09:10.146Z,15.07
2017-09-27T12:14:35.274Z,15.80
2017-09-27T12:17:12.570Z,22.70
2017-09-27T12:22:29.992Z,14.80
2017-09-27T12:25:04.012Z,30.83
2017-09-27T12:27:33.937Z,15.90
2017-09-27T12:30:07.718Z,15.30
2017-09-27T12:38:21.670Z,16.10
2017-09-27T12:40:47.702Z,17.53
2017-09-27T12:43:28.416Z,17.97
2017-09-27T12:46:08.137Z,17.13
2017-09-27T12:51:40.440Z,20.63
2017-09-27T12:54:14.954Z,17.53
2017-09-27T12:56:41.952Z,19.50
2017-09-27T12:59:32.413Z,17.00
2017-09-27T13:01:58.378Z,19.50
2017-09-27T13:04:25.126Z,17.70
2017-09-27T13:06:51.048Z,21.50
2017-09-27T13:09:17.086Z,19.63
2017-09-27T13:11:47.054Z,15.00
2017-09-27T13:14:23.390Z,16.90
2017-09-27T13:16:57.105Z,19.40
2017-09-27T13:19:30.914Z,18.00
2017-09-27T13:22:02.458Z,23.23
2017-09-27T13:24:35.038Z,20.17
2017-09-27T13:27:02.998Z,20.97
2017-09-27T13:29:32.890Z,23.50
2017-09-27T13:32:02.414Z,16.67
2017-09-27T13:34:29.218Z,19.50
2017-09-27T13:37:05.566Z,15.97
2017-09-27T13:39:38.290Z,22.67
2017-09-27T13:42:04.294Z,21.73
2017-09-27T13:44:37.043Z,20.70
2017-09-27T13:47:02.986Z,37.90
2017-09-27T13:49:28.977Z,20.23
2017-09-27T13:51:56.681Z,17.73
2017-09-27T13:54:22.626Z,19.93
2017-09-27T13:56:48.593Z,19.10
2017-09-27T13:59:15.290Z,19.10
2017-09-27T14:01:41.229Z,16.60
2017-09-27T14:04:07.196Z,20.43
2017-09-27T14:06:33.865Z,21.10
2017-09-27T14:08:59.817Z,20.20
2017-09-27T14:11:25.757Z,19.13
2017-09-27T14:13:51.729Z,24.13
2017-09-27T14:16:19.513Z,18.30
2017-09-27T14:18:45.461Z,24.60
2017-09-27T14:21:11.381Z,22.50
2017-09-27T14:23:37.317Z,19.80
2017-09-27T14:26:03.238Z,23.90
2017-09-27T14:28:29.217Z,14.70
2017-09-27T14:30:55.133Z,24.57
2017-09-27T14:33:21.045Z,22.17
2017-09-27T14:35:47.001Z,22.10
2017-09-27T14:38:12.939Z,19.30
2017-09-27T14:40:39.618Z,19.20
2017-09-27T14:43:05.566Z,18.50
2017-09-27T14:45:31.492Z,16.87
2017-09-27T14:47:57.479Z,19.00
2017-09-27T14:50:26.275Z,20.50
2017-09-27T14:52:53.941Z,15.83
2017-09-27T14:55:20.621Z,16.10
2017-09-27T14:57:46.569Z,16.50
2017-09-27T15:00:12.502Z,19.30
2017-09-27T15:02:38.454Z,14.53
2017-09-27T15:05:04.390Z,25.70
2017-09-27T15:07:31.058Z,18.90
2017-09-27T15:09:57.003Z,14.07
2017-09-27T15:12:22.929Z,18.07
2017-09-27T15:14:48.858Z,19.57
2017-09-27T15:17:14.815Z,22.77
2017-09-27T15:19:40.757Z,23.00
2017-09-27T15:22:08.437Z,22.50
2017-09-27T15:24:38.471Z,17.60
2017-09-27T15:27:04.457Z,15.23
2017-09-27T15:29:30.423Z,21.20
2017-09-27T15:31:56.361Z,17.00
2017-09-27T15:34:22.297Z,15.73
2017-09-27T15:36:48.254Z,15.40
2017-09-27T15:39:14.987Z,14.97
2017-09-27T15:41:41.039Z,17.10
2017-09-27T15:44:14.824Z,22.90
2017-09-27T15:46:51.291Z,15.30
2017-09-27T15:49:28.244Z,24.53
2017-09-27T15:52:01.026Z,14.40
2017-09-27T15:54:41.824Z,17.90
2017-09-27T15:57:12.514Z,24.00
2017-09-27T15:59:46.046Z,13.87
2017-09-27T16:02:22.860Z,17.50
2017-09-27T16:04:48.919Z,21.03
2017-09-27T16:07:15.628Z,16.70
2017-09-27T16:09:41.610Z,26.20
2017-09-27T16:12:08.615Z,17.77
2017-09-27T16:14:34.658Z,16.93
2017-09-27T16:17:00.658Z,14.90
2017-09-27T16:19:26.586Z,17.50
2017-09-27T16:21:52.506Z,16.07
2017-09-27T16:24:18.437Z,15.20
2017-09-27T16:26:44.378Z,18.10
2017-09-27T16:29:10.297Z,11.97
2017-09-27T16:31:36.241Z,12.60
2017-09-27T16:34:02.170Z,18.13
2017-09-27T16:36:28.123Z,16.67
2017-09-27T16:38:55.821Z,15.90
2017-09-27T16:41:21.754Z,15.70
2017-09-27T16:43:47.702Z,18.13
2017-09-27T16:46:13.625Z,23.00
2017-09-27T16:48:39.553Z,26.13
2017-09-27T16:51:05.481Z,17.30
2017-09-27T16:53:31.421Z,12.50
2017-09-27T16:55:57.354Z,18.70
2017-09-27T16:58:23.285Z,21.30
2017-09-27T17:00:49.217Z,15.13
2017-09-27T17:03:15.156Z,12.47
2017-09-27T17:05:41.818Z,18.27
2017-09-27T17:08:07.778Z,13.13
2017-09-27T17:10:33.725Z,20.33
2017-09-27T17:13:03.760Z,19.40
2017-09-27T17:15:29.745Z,16.30
2017-09-27T17:17:55.786Z,22.17
2017-09-27T17:20:30.547Z,22.77
2017-09-27T17:23:00.882Z,17.80
2017-09-27T17:25:26.807Z,19.57
2017-09-27T17:27:52.744Z,27.00
2017-09-27T17:30:19.421Z,18.20
2017-09-27T17:32:45.362Z,17.27
2017-09-27T17:35:11.294Z,25.47
2017-09-27T17:37:37.218Z,40.53
2017-09-27T17:40:03.154Z,21.47
2017-09-27T17:42:29.090Z,17.87
2017-09-27T17:44:55.049Z,29.53
2017-09-27T17:47:21.794Z,16.80
2017-09-27T17:49:48.482Z,17.63
2017-09-27T17:52:14.425Z,17.70
2017-09-27T17:54:41.373Z,20.20
2017-09-27T17:57:07.310Z,20.30
2017-09-27T17:59:33.265Z,19.13
2017-09-27T18:01:59.253Z,25.60
2017-09-27T18:04:31.422Z,29.83
2017-09-27T18:06:59.323Z,26.27
2017-09-27T18:09:31.254Z,21.20
2017-09-27T18:11:57.229Z,44.90
2017-09-27T18:14:33.121Z,44.53
2017-09-27T18:17:03.520Z,54.43
2017-09-27T18:19:30.226Z,43.77
2017-09-27T18:21:56.229Z,33.63
2017-09-27T18:24:22.229Z,41.80
2017-09-27T18:26:49.977Z,42.37
2017-09-27T18:29:16.723Z,33.33
2017-09-27T18:31:43.498Z,36.13
2017-09-27T18:34:10.249Z,40.27
2017-09-27T18:36:36.242Z,36.53
2017-09-27T18:39:02.289Z,24.70
2017-09-27T18:41:28.275Z,42.93
2017-09-27T18:43:54.233Z,32.27
2017-09-27T18:46:20.218Z,29.47
2017-09-27T18:48:46.200Z,36.20
2017-09-27T18:51:12.930Z,20.90
2017-09-27T18:53:38.889Z,27.33
2017-09-27T18:56:04.869Z,34.07
2017-09-27T18:58:30.813Z,28.30
2017-09-27T19:00:56.857Z,36.83
2017-09-27T19:03:22.786Z,24.67
2017-09-27T19:05:50.481Z,35.23
2017-09-27T19:08:20.387Z,42.63
2017-09-27T19:10:48.136Z,40.60
2017-09-27T19:13:14.127Z,39.00
2017-09-27T19:15:43.468Z,32.80
2017-09-27T19:18:09.522Z,30.07
2017-09-27T19:20:35.518Z,32.20
2017-09-27T19:23:09.871Z,25.63
2017-09-27T19:25:39.347Z,24.23
2017-09-27T19:28:05.373Z,26.07
2017-09-27T19:30:31.418Z,27.10
2017-09-27T19:33:23.303Z,25.27
2017-09-27T19:36:11.038Z,21.30
2017-09-27T19:38:36.999Z,28.00
2017-09-27T19:41:09.349Z,32.57
2017-09-27T19:43:36.302Z,28.80
2017-09-27T19:49:09.145Z,26.50
2017-09-27T19:51:39.017Z,25.77
2017-09-27T19:54:22.381Z,30.00
2017-09-27T19:57:03.258Z,35.33
2017-09-27T19:59:37.801Z,27.83
2017-09-27T20:02:10.134Z,24.97
2017-09-27T20:04:50.031Z,33.30
2017-09-27T20:07:15.979Z,37.17
2017-09-27T20:09:52.099Z,27.30
2017-09-27T20:12:22.157Z,26.70
2017-09-27T20:14:55.720Z,28.27
2017-09-27T20:17:29.386Z,24.00
2017-09-27T20:20:06.872Z,30.30
2017-09-27T20:22:44.249Z,33.83
2017-09-27T20:25:18.587Z,27.27
2017-09-27T20:27:51.186Z,24.90
2017-09-27T20:33:12.578Z,29.50
2017-09-27T20:35:41.371Z,29.83
2017-09-27T20:38:11.278Z,31.93
2017-09-27T20:40:41.814Z,24.40
2017-09-27T20:43:19.016Z,25.03
2017-09-27T20:45:45.891Z,25.17
2017-09-27T20:48:22.238Z,23.53
2017-09-27T20:51:00.693Z,31.20
2017-09-27T20:53:28.695Z,26.33
2017-09-27T20:56:01.304Z,31.43
2017-09-27T20:58:34.826Z,22.67
2017-09-27T21:01:00.914Z,24.27
2017-09-27T21:03:33.847Z,26.17
2017-09-27T21:06:08.265Z,25.67
2017-09-27T21:08:41.947Z,29.70
2017-09-27T21:11:09.908Z,25.60
2017-09-27T21:13:55.093Z,29.17
2017-09-27T21:16:24.773Z,26.53
2017-09-27T21:18:50.776Z,30.80
2017-09-27T21:21:16.851Z,28.40
2017-09-27T21:23:58.481Z,23.97
2017-09-27T21:26:25.266Z,31.83
2017-09-27T21:28:55.293Z,32.90
2017-09-27T21:31:22.029Z,28.30
2017-09-27T21:33:49.800Z,33.10
2017-09-27T21:36:23.118Z,32.17
2017-09-27T21:38:49.097Z,24.53
2017-09-27T21:41:18.630Z,29.67
2017-09-27T21:43:47.326Z,29.43
2017-09-27T21:46:19.712Z,32.10
2017-09-27T21:48:48.508Z,28.43
2017-09-27T21:51:23.334Z,32.10
2017-09-27T21:53:50.005Z,30.33
2017-09-27T21:56:26.662Z,29.77
2017-09-27T21:58:57.394Z,28.07
2017-09-27T22:01:43.748Z,27.07
2017-09-27T22:04:09.823Z,25.73
2017-09-27T22:06:46.743Z,38.60
2017-09-27T22:09:23.271Z,31.70
2017-09-27T22:12:06.508Z,29.00
2017-09-27T22:14:32.464Z,29.50
2017-09-27T22:16:58.533Z,40.23
2017-09-27T22:19:33.402Z,26.37
2017-09-27T22:22:09.946Z,28.60
2017-09-27T22:24:37.911Z,25.70
2017-09-27T22:27:11.838Z,26.97
2017-09-27T22:29:41.447Z,29.33
2017-09-27T22:32:09.502Z,29.70
2017-09-27T22:34:42.449Z,33.87
2017-09-27T22:37:08.509Z,27.43
2017-09-27T22:39:38.546Z,34.03
2017-09-27T22:42:06.309Z,42.70
2017-09-27T22:44:33.011Z,31.30
2017-09-27T22:47:03.073Z,45.07
2017-09-27T22:49:30.873Z,41.20
2017-09-27T22:52:00.162Z,32.00
2017-09-27T22:54:30.697Z,32.37
2017-09-27T22:57:04.201Z,27.33
2017-09-27T22:59:33.909Z,38.13
2017-09-27T23:02:06.426Z,29.30
2017-09-27T23:04:33.414Z,29.93
2017-09-27T23:07:10.648Z,47.03
2017-09-27T23:09:41.137Z,32.60
2017-09-27T23:12:15.575Z,33.07
2017-09-27T23:14:56.273Z,31.37
2017-09-27T23:17:28.657Z,32.43
2017-09-27T23:19:54.657Z,44.40
2017-09-27T23:22:32.930Z,34.73
2017-09-27T23:25:01.841Z,38.27
2017-09-27T23:27:48.181Z,30.57
2017-09-27T23:30:24.805Z,37.07
2017-09-27T23:32:52.554Z,33.57
2017-09-27T23:35:25.079Z,36.80
2017-09-27T23:38:03.567Z,37.23
2017-09-27T23:40:38.382Z,34.43
2017-09-27T23:43:16.142Z,35.23
2017-09-27T23:45:55.127Z,37.70
2017-09-27T23:48:21.077Z,35.20
2017-09-27T23:50:51.172Z,36.00
2017-09-27T23:53:17.225Z,35.27
2017-09-27T23:55:46.377Z,36.20
2017-09-27T23:58:16.214Z,34.97
